Time;durP1;ratioP1;P1;durP2;ratioP2;P2;SDS_P1;SDS_P2;PMS_P1;PMS_P2;Temp;Humidity;BMP_temperature;BMP_pressure;BME280_temperature;BME280_humidity;BME280_pressure;Samples;Min_cycle;Max_cycle;Signal;HPM_P1;HPM_P2
2022/06/20 00:00:27;;;;;;;3.27;2.40;;;17.70;91.10;;;18.08;60.11;95074.97;5066734;28;20482;-55
2022/06/20 00:02:56;;;;;;;6.33;2.40;;;17.70;91.20;;;18.06;60.07;95073.50;5079004;28;20833;-53
2022/06/20 00:05:27;;;;;;;3.27;2.63;;;17.70;91.30;;;18.04;59.75;95064.88;5072267;28;20525;-55
2022/06/20 00:07:54;;;;;;;2.63;2.40;;;17.60;91.40;;;18.01;60.14;95070.53;5082266;28;21004;-54
2022/06/20 00:10:23;;;;;;;4.30;2.23;;;17.60;91.40;;;17.98;59.71;95077.06;5064620;28;20475;-54
2022/06/20 00:12:52;;;;;;;2.70;2.40;;;17.60;91.40;;;17.97;60.13;95080.75;5077633;28;20496;-53
2022/06/20 00:15:24;;;;;;;4.13;2.30;;;17.60;91.50;;;17.95;59.86;95081.91;5081361;28;20478;-56
2022/06/20 00:17:51;;;;;;;3.37;2.17;;;17.60;91.40;;;17.91;59.68;95076.13;5081634;28;20449;-55
2022/06/20 00:20:19;;;;;;;4.50;2.00;;;17.50;91.40;;;17.88;59.63;95069.31;5086698;28;20482;-54
2022/06/20 00:22:46;;;;;;;4.10;2.20;;;17.50;91.30;;;17.86;59.43;95068.66;5081635;28;20473;-53
2022/06/20 00:25:14;;;;;;;3.50;2.23;;;17.50;91.30;;;17.83;59.84;95062.84;5072658;28;20987;-54
2022/06/20 00:27:41;;;;;;;4.80;2.60;;;17.50;91.50;;;17.79;59.53;95062.41;5072606;28;20460;-54
2022/06/20 00:30:12;;;;;;;2.80;2.50;;;17.40;91.40;;;17.76;59.82;95067.25;5074239;28;20479;-53
2022/06/20 00:32:39;;;;;;;2.07;1.97;;;17.40;91.40;;;17.73;59.58;95073.75;5079393;28;20477;-54
2022/06/20 00:35:08;;;;;;;1.90;1.80;;;17.30;91.30;;;17.70;59.78;95058.97;5079416;28;20478;-53
2022/06/20 00:37:35;;;;;;;3.20;2.43;;;17.40;91.50;;;17.66;60.11;95063.00;5073063;28;20463;-56
2022/06/20 00:40:03;;;;;;;3.63;2.47;;;17.30;91.60;;;17.63;60.11;95051.88;5081102;28;20475;-56
2022/06/20 00:42:31;;;;;;;2.33;2.23;;;17.30;91.60;;;17.61;60.20;95059.22;5077934;28;20456;-53
2022/06/20 00:44:59;;;;;;;3.90;3.07;;;17.20;91.70;;;17.55;59.98;95050.97;5075193;28;20489;-53
2022/06/20 00:47:31;;;;;;;3.47;1.90;;;17.20;91.70;;;17.50;60.09;95053.31;5076542;28;20461;-55
2022/06/20 00:50:01;;;;;;;2.17;1.87;;;17.10;91.60;;;17.47;60.41;95060.81;5075673;28;20474;-53
2022/06/20 00:52:34;;;;;;;21.10;2.60;;;17.10;91.90;;;17.43;60.20;95055.03;5075247;28;21027;-53
2022/06/20 00:55:04;;;;;;;2.37;2.10;;;17.10;92.00;;;17.39;60.61;95057.22;5075936;28;20474;-55
2022/06/20 00:57:35;;;;;;;4.60;2.17;;;17.10;92.20;;;17.37;60.26;95047.78;5066862;28;20451;-55
2022/06/20 01:00:06;;;;;;;4.40;2.53;;;17.00;92.20;;;17.36;60.55;95048.78;5075734;28;20478;-54
2022/06/20 01:02:37;;;;;;;5.57;2.17;;;17.00;92.40;;;17.33;61.01;95057.09;5071689;28;20451;-54
2022/06/20 01:05:07;;;;;;;2.67;2.47;;;17.00;92.40;;;17.32;60.61;95050.13;5083822;28;20481;-53
2022/06/20 01:07:40;;;;;;;3.00;2.40;;;16.90;92.40;;;17.27;60.63;95047.16;5077069;28;20455;-54
2022/06/20 01:10:09;;;;;;;5.13;2.97;;;16.90;92.40;;;17.22;60.42;95038.91;5077560;28;20891;-54
2022/06/20 01:12:45;;;;;;;3.50;2.97;;;16.90;92.40;;;17.15;60.67;95036.97;5064773;28;20498;-55
2022/06/20 01:15:21;;;;;;;4.53;2.97;;;16.80;92.30;;;17.12;60.78;95033.84;5076807;28;20482;-54
2022/06/20 01:17:50;;;;;;;6.47;2.30;;;16.80;92.50;;;17.10;61.11;95036.66;5078490;28;20926;-54
2022/06/20 01:20:23;;;;;;;3.93;2.80;;;16.80;92.80;;;17.07;61.40;95037.03;5075020;28;20485;-56
2022/06/20 01:23:05;;;;;;;3.80;2.43;;;16.70;92.90;;;17.07;61.44;95041.50;5067119;28;20462;-53
2022/06/20 01:25:55;;;;;;;7.00;2.63;;;16.70;93.10;;;17.09;61.98;95042.16;5080086;28;20479;-55
2022/06/20 01:28:27;;;;;;;4.50;2.73;;;16.70;93.30;;;17.07;61.14;95037.03;5083928;28;20461;-54
2022/06/20 01:30:54;;;;;;;2.83;2.70;;;16.70;93.00;;;17.08;61.54;95045.81;5072293;28;21005;-54
2022/06/20 01:33:22;;;;;;;3.50;3.00;;;16.70;93.40;;;17.08;61.54;95046.63;5081390;28;20497;-54
2022/06/20 01:38:34;;;;;;;14.07;2.57;;;16.70;93.70;;;17.10;61.94;95049.97;5070967;28;21062;-56
2022/06/20 01:43:48;;;;;;;8.63;2.30;;;16.70;93.40;;;17.03;61.25;95054.31;5080505;28;20494;-55
2022/06/20 01:46:15;;;;;;;13.53;2.97;;;16.70;93.30;;;16.98;61.38;95048.69;5075231;28;20891;-56
2022/06/20 01:48:46;;;;;;;2.37;2.27;;;16.70;93.40;;;16.94;61.35;95044.72;5077423;28;20446;-54
2022/06/20 01:51:17;;;;;;;2.30;2.10;;;16.60;93.30;;;16.90;61.85;95040.75;5073036;28;20474;-54
2022/06/20 01:53:44;;;;;;;2.97;2.77;;;16.60;93.70;;;16.89;62.16;95042.59;5070099;28;20571;-56
2022/06/20 01:56:12;;;;;;;9.03;3.00;;;16.50;94.00;;;16.90;62.23;95040.75;5070678;28;20511;-55
2022/06/20 01:58:40;;;;;;;2.30;2.20;;;16.50;94.10;;;16.88;62.47;95045.44;5073501;28;21430;-55
2022/06/20 02:01:09;;;;;;;3.80;2.63;;;16.50;94.20;;;16.91;62.40;95042.41;5079560;28;20474;-54
2022/06/20 02:03:39;;;;;;;5.50;2.53;;;16.50;94.30;;;16.88;62.64;95042.78;5071618;28;20457;-55
2022/06/20 02:06:06;;;;;;;9.03;3.00;;;16.50;94.30;;;16.89;62.96;95052.41;5071065;28;21138;-52
2022/06/20 02:08:35;;;;;;;4.60;3.27;;;16.50;94.60;;;16.87;62.54;95044.59;5074505;28;20459;-55
2022/06/20 02:11:06;;;;;;;5.70;3.07;;;16.50;94.50;;;16.85;62.92;95047.41;5076740;28;20490;-55
2022/06/20 02:13:35;;;;;;;4.30;2.90;;;16.50;94.60;;;16.85;62.93;95042.09;5075486;28;20479;-54
2022/06/20 02:16:05;;;;;;;2.97;2.67;;;16.50;94.70;;;16.84;62.72;95036.97;5080707;28;20477;-55
2022/06/20 02:18:36;;;;;;;4.37;2.23;;;16.50;95.00;;;16.81;62.59;95027.50;5077999;28;20458;-54
2022/06/20 02:21:06;;;;;;;2.90;2.70;;;16.50;94.40;;;16.80;62.57;95036.47;5076212;28;20586;-56
2022/06/20 02:23:37;;;;;;;2.63;2.43;;;16.50;94.50;;;16.79;62.55;95034.81;5077956;28;20901;-57
2022/06/20 02:26:06;;;;;;;3.03;2.70;;;16.40;94.50;;;16.78;62.69;95041.13;5075717;28;20470;-54
2022/06/20 02:28:36;;;;;;;2.33;2.13;;;16.40;94.60;;;16.73;62.87;95027.56;5073584;28;20459;-54
2022/06/20 02:31:03;;;;;;;6.93;2.60;;;16.40;94.60;;;16.72;63.17;95028.53;5069825;28;20474;-53
2022/06/20 02:33:30;;;;;;;2.87;2.67;;;16.40;94.70;;;16.69;63.25;95028.06;5078766;28;20489;-54
2022/06/20 02:36:00;;;;;;;7.40;3.47;;;16.40;94.90;;;16.65;63.26;95027.56;5072472;28;20710;-53
2022/06/20 02:38:27;;;;;;;2.97;2.77;;;16.30;95.20;;;16.60;62.97;95025.44;5075817;28;20464;-55
2022/06/20 02:40:55;;;;;;;3.13;2.90;;;16.30;94.80;;;16.54;63.07;95027.97;5076153;28;20481;-55
2022/06/20 02:43:25;;;;;;;3.20;3.00;;;16.20;94.80;;;16.49;63.19;95029.28;5071057;28;20450;-54
2022/06/20 02:45:53;;;;;;;3.10;2.87;;;16.20;94.80;;;16.46;63.47;95020.84;5072721;28;20475;-54
2022/06/20 02:48:20;;;;;;;3.17;2.73;;;16.20;95.20;;;16.43;63.69;95016.72;5082654;28;20454;-56
2022/06/20 02:50:53;;;;;;;6.73;3.00;;;16.10;95.30;;;16.41;64.07;95023.22;5076931;28;20470;-57
2022/06/20 02:53:24;;;;;;;3.53;2.63;;;16.10;95.30;;;16.38;63.83;95027.03;5079401;28;20961;-53
2022/06/20 02:55:52;;;;;;;9.30;2.93;;;16.10;95.50;;;16.36;63.84;95031.69;5068206;28;20475;-54
2022/06/20 02:58:23;;;;;;;5.73;3.10;;;16.00;95.60;;;16.35;64.13;95031.84;5071789;28;20565;-55
2022/06/20 03:00:53;;;;;;;5.80;3.73;;;16.00;95.60;;;16.33;64.01;95033.84;5078792;28;20521;-54
2022/06/20 03:03:24;;;;;;;4.23;3.03;;;16.00;95.70;;;16.32;64.34;95038.34;5078519;28;20448;-55
2022/06/20 03:05:51;;;;;;;10.90;3.70;;;16.00;95.80;;;16.32;64.24;95038.34;5080390;28;20482;-55
2022/06/20 03:08:19;;;;;;;3.27;2.90;;;16.00;95.90;;;16.31;64.20;95034.84;5084247;28;20457;-55
2022/06/20 03:10:48;;;;;;;4.33;3.10;;;16.00;95.90;;;16.33;64.57;95036.50;5074742;28;20599;-55
2022/06/20 03:13:16;;;;;;;5.30;3.20;;;16.00;96.20;;;16.33;64.43;95040.00;5077223;28;20498;-55
2022/06/20 03:15:44;;;;;;;4.20;3.87;;;16.00;96.20;;;16.34;64.52;95030.19;5072138;28;20997;-53
2022/06/20 03:18:12;;;;;;;5.57;3.23;;;16.00;96.10;;;16.35;64.57;95035.34;5075811;28;21023;-53
2022/06/20 03:20:40;;;;;;;6.73;3.73;;;16.00;96.20;;;16.35;64.67;95034.50;5084850;28;20478;-54
2022/06/20 03:23:09;;;;;;;3.93;3.57;;;16.00;96.30;;;16.37;64.61;95029.84;5076259;28;20455;-54
2022/06/20 03:25:37;;;;;;;6.40;3.80;;;16.00;96.40;;;16.35;64.86;95026.56;5074924;28;20473;-53
2022/06/20 03:28:08;;;;;;;9.57;2.70;;;16.00;96.60;;;16.35;65.18;95030.03;5074558;28;20454;-54
2022/06/20 03:30:37;;;;;;;5.30;3.10;;;16.00;96.60;;;16.37;64.92;95025.34;5070926;28;20470;-54
2022/06/20 03:33:07;;;;;;;8.93;3.57;;;16.00;96.60;;;16.39;64.84;95028.69;5075754;28;20904;-54
2022/06/20 03:35:35;;;;;;;7.33;4.07;;;16.10;96.60;;;16.40;64.92;95027.66;5076303;28;20507;-54
2022/06/20 03:38:05;;;;;;;4.13;3.47;;;16.10;96.70;;;16.42;65.09;95035.47;5082103;28;20461;-52
2022/06/20 03:40:33;;;;;;;5.70;2.70;;;16.10;96.70;;;16.43;65.14;95029.97;5074508;28;20542;-55
2022/06/20 03:43:00;;;;;;;5.67;3.43;;;16.10;96.80;;;16.46;64.95;95032.28;5082146;28;20577;-57
2022/06/20 03:45:32;;;;;;;6.40;3.43;;;16.10;96.80;;;16.51;64.97;95037.09;5083338;28;20474;-54
2022/06/20 03:48:02;;;;;;;4.70;3.10;;;16.10;96.80;;;16.55;64.92;95037.59;5080582;28;20442;-55
2022/06/20 03:50:33;;;;;;;3.30;3.07;;;16.20;96.70;;;16.59;64.87;95033.56;5080520;28;20462;-54
2022/06/20 03:53:04;;;;;;;9.70;4.30;;;16.20;96.70;;;16.64;64.69;95034.72;5078399;28;20456;-53
2022/06/20 03:55:34;;;;;;;10.67;4.00;;;16.30;96.80;;;16.71;64.96;95042.00;5082707;28;20475;-55
2022/06/20 03:58:06;;;;;;;14.37;4.27;;;16.40;96.90;;;16.77;64.53;95049.28;5074962;28;20444;-54
2022/06/20 04:00:38;;;;;;;8.20;4.27;;;16.40;96.80;;;16.80;64.45;95039.13;5065506;28;20512;-54
2022/06/20 04:03:10;;;;;;;6.60;3.40;;;16.40;96.60;;;16.85;64.61;95039.44;5072853;28;21066;-56
2022/06/20 04:05:41;;;;;;;7.80;4.03;;;16.50;96.50;;;16.90;64.78;95040.75;5068897;28;20602;-55
2022/06/20 04:08:11;;;;;;;8.93;4.40;;;16.50;96.70;;;16.95;64.59;95043.75;5076282;28;20442;-56
2022/06/20 04:10:58;;;;;;;12.60;3.10;;;16.60;96.70;;;16.98;64.63;95038.06;5077293;28;21020;-56
2022/06/20 04:13:28;;;;;;;21.27;3.57;;;16.60;96.50;;;17.03;63.80;95031.22;5068347;28;20539;-56
2022/06/20 04:15:59;;;;;;;7.87;5.23;;;16.70;96.20;;;17.10;63.52;95031.34;5074135;28;20482;-55
2022/06/20 04:18:30;;;;;;;32.07;4.90;;;16.70;96.00;;;17.14;63.51;95027.31;5073008;28;20465;-55
2022/06/20 04:21:09;;;;;;;8.77;4.23;;;16.80;96.00;;;17.19;63.31;95027.59;5073732;28;21106;-56
2022/06/20 04:23:40;;;;;;;6.40;3.83;;;16.80;96.00;;;17.27;63.64;95028.56;5069338;28;20478;-54
2022/06/20 04:26:11;;;;;;;12.80;4.00;;;16.90;95.90;;;17.35;62.93;95028.50;5073076;28;20481;-55
2022/06/20 04:28:44;;;;;;;4.53;4.00;;;16.90;95.60;;;17.41;62.88;95029.63;5069526;28;20570;-55
2022/06/20 04:31:18;;;;;;;18.23;4.63;;;17.00;95.50;;;17.47;62.66;95031.56;5068553;28;20482;-55
2022/06/20 04:33:49;;;;;;;9.23;4.40;;;17.00;95.40;;;17.53;62.70;95037.00;5077231;28;20483;-55
2022/06/20 04:36:26;;;;;;;14.03;4.50;;;17.10;95.70;;;17.64;62.45;95026.94;5070116;28;20466;-58
2022/06/20 04:38:56;;;;;;;16.63;4.07;;;17.20;95.60;;;17.72;62.53;95029.53;5081586;28;20469;-57
2022/06/20 04:41:34;;;;;;;13.90;5.30;;;17.30;95.30;;;17.79;62.26;95030.47;5077483;28;21034;-51
2022/06/20 04:44:04;;;;;;;15.20;6.30;;;17.40;95.40;;;17.87;62.21;95033.03;5066973;28;20451;-57
2022/06/20 04:46:36;;;;;;;14.87;4.97;;;17.40;95.40;;;17.97;62.34;95029.31;5081184;28;20504;-54
2022/06/20 04:49:03;;;;;;;27.53;8.40;;;17.60;95.30;;;18.04;61.83;95033.75;5073888;28;20949;-55
2022/06/20 04:51:36;;;;;;;23.37;7.50;;;17.60;95.20;;;18.13;62.07;95020.38;5081025;28;20477;-56
2022/06/20 04:54:04;;;;;;;27.73;7.97;;;17.70;95.00;;;18.21;61.57;95023.75;5077651;28;21013;-56
2022/06/20 04:56:31;;;;;;;18.43;6.10;;;17.80;94.90;;;18.28;61.42;95019.34;5078222;28;20478;-56
2022/06/20 04:59:01;;;;;;;16.83;7.40;;;17.80;94.80;;;18.37;61.04;95016.59;5077028;28;20461;-55
2022/06/20 05:01:30;;;;;;;10.97;5.30;;;17.90;94.70;;;18.43;60.86;95013.19;5066989;28;20509;-56
2022/06/20 05:04:04;;;;;;;9.33;4.83;;;18.00;94.60;;;18.50;61.17;95006.13;5074684;28;20489;-55
2022/06/20 05:06:32;;;;;;;5.27;3.77;;;18.10;94.40;;;18.58;60.18;95000.69;5071630;28;20482;-58
2022/06/20 05:09:02;;;;;;;6.30;3.70;;;18.10;94.00;;;18.61;60.00;95005.63;5066760;28;20454;-56
2022/06/20 05:11:32;;;;;;;12.30;4.40;;;18.20;93.70;;;18.63;59.23;95006.25;5073195;28;20477;-56
2022/06/20 05:14:04;;;;;;;5.13;4.73;;;18.20;93.30;;;18.65;59.30;95011.41;5070523;28;20482;-56
2022/06/20 05:16:34;;;;;;;15.60;5.23;;;18.30;93.10;;;18.71;59.72;95013.31;5077484;28;20557;-54
2022/06/20 05:19:07;;;;;;;7.30;3.93;;;18.30;93.60;;;18.86;59.43;95020.50;5073274;28;20462;-54
2022/06/20 05:21:39;;;;;;;8.70;4.50;;;18.40;93.60;;;19.06;59.56;95026.06;5062157;28;20584;-56
2022/06/20 05:24:11;;;;;;;7.67;3.93;;;18.60;93.50;;;19.25;58.93;95019.28;5066427;28;20465;-56
2022/06/20 05:26:41;;;;;;;7.93;4.07;;;18.70;92.90;;;19.44;58.71;95015.16;5070167;28;20548;-56
2022/06/20 05:29:16;;;;;;;8.53;5.07;;;18.90;92.60;;;19.63;57.82;95011.84;5070185;28;20442;-54
2022/06/20 05:31:46;;;;;;;4.07;3.77;;;19.10;92.40;;;19.81;57.29;95018.56;5078918;28;21002;-53
2022/06/20 05:34:18;;;;;;;4.73;3.37;;;19.30;92.00;;;19.98;57.12;95014.59;5073074;28;20481;-56
2022/06/20 05:36:50;;;;;;;5.10;3.80;;;19.40;91.70;;;20.16;56.56;95016.78;5073748;28;20466;-56
2022/06/20 05:39:20;;;;;;;3.97;3.60;;;19.60;91.40;;;20.36;56.29;95016.88;5075321;28;20539;-52
2022/06/20 05:41:49;;;;;;;9.30;4.10;;;19.80;91.20;;;20.57;56.01;95012.47;5070483;28;20868;-53
2022/06/20 05:44:17;;;;;;;6.83;3.23;;;20.00;91.10;;;20.78;55.40;95015.06;5065245;28;20500;-55
2022/06/20 05:46:48;;;;;;;15.73;4.33;;;20.20;90.50;;;20.97;55.04;95023.34;5084187;28;21005;-54
2022/06/20 05:49:18;;;;;;;5.90;4.17;;;20.40;90.30;;;21.20;54.34;95019.53;5077827;28;20450;-55
2022/06/20 05:51:46;;;;;;;8.27;3.90;;;20.60;89.70;;;21.39;54.31;95010.69;5063658;28;21715;-54
2022/06/20 05:54:17;;;;;;;5.90;4.10;;;20.70;89.00;;;21.57;53.81;95014.69;5072561;28;20847;-55
2022/06/20 05:56:47;;;;;;;5.43;3.40;;;20.90;88.20;;;21.74;53.00;95012.41;5074088;28;20865;-56
2022/06/20 05:59:37;;;;;;;3.43;3.07;;;21.10;87.40;;;21.94;52.83;94999.84;5080565;28;20983;-54
2022/06/20 06:02:14;;;;;;;3.67;3.40;;;21.30;87.40;;;22.15;50.80;95006.84;5069281;28;20450;-56
2022/06/20 06:04:45;;;;;;;5.70;3.40;;;21.50;84.30;;;22.33;52.18;95000.00;5078695;28;20846;-55
2022/06/20 06:07:16;;;;;;;7.00;3.77;;;21.70;84.60;;;22.52;51.56;95006.34;5068958;28;21029;-54
2022/06/20 06:09:47;;;;;;;3.10;2.90;;;21.80;84.40;;;22.71;51.69;95004.63;5077349;28;20565;-55
2022/06/20 06:12:17;;;;;;;4.63;3.40;;;22.10;84.10;;;22.91;50.94;95008.06;5072886;28;20458;-53
2022/06/20 06:14:47;;;;;;;4.83;3.73;;;22.20;83.40;;;23.08;50.77;94996.81;5076408;28;20493;-56
2022/06/20 06:17:18;;;;;;;5.13;4.47;;;22.40;82.60;;;23.21;50.42;94996.78;5066871;28;21031;-55
2022/06/20 06:19:50;;;;;;;4.90;3.43;;;22.60;81.10;;;23.32;49.97;94999.84;5069128;28;20459;-57
2022/06/20 06:22:20;;;;;;;9.47;3.80;;;22.70;80.30;;;23.45;50.03;95000.56;5079776;28;20515;-55
2022/06/20 06:24:53;;;;;;;7.03;3.80;;;22.80;79.90;;;23.63;49.62;94993.63;5077358;28;20577;-54
2022/06/20 06:27:24;;;;;;;6.87;3.93;;;23.00;79.30;;;23.80;48.44;94993.91;5069528;28;20896;-56
2022/06/20 06:29:55;;;;;;;10.60;4.27;;;23.10;78.20;;;23.95;49.27;94991.75;5074089;28;20470;-54
2022/06/20 06:32:25;;;;;;;6.60;4.70;;;23.30;78.50;;;24.11;48.48;94993.03;5076019;28;20902;-56
2022/06/20 06:34:57;;;;;;;4.73;4.23;;;23.40;77.70;;;24.24;48.18;94986.69;5071169;28;20554;-56
2022/06/20 06:37:27;;;;;;;4.60;4.20;;;23.60;77.90;;;24.40;48.18;94981.78;5081234;28;20442;-55
2022/06/20 06:39:59;;;;;;;15.63;4.57;;;23.70;76.00;;;24.48;47.80;94974.25;5084890;28;20538;-55
2022/06/20 06:42:26;;;;;;;14.43;4.70;;;23.80;75.10;;;24.55;47.45;94970.66;5073065;28;20786;-54
2022/06/20 06:44:54;;;;;;;8.77;4.70;;;23.90;74.60;;;24.70;47.37;94980.00;5080646;28;20519;-54
2022/06/20 06:47:27;;;;;;;4.80;3.97;;;24.00;74.10;;;24.87;47.05;94965.97;5081363;28;20485;-54
2022/06/20 06:49:58;;;;;;;10.30;4.77;;;24.20;73.40;;;25.05;46.67;94970.47;5081685;28;20517;-56
2022/06/20 06:52:29;;;;;;;5.40;4.33;;;24.30;72.70;;;25.20;46.62;94970.06;5081527;28;20442;-53
2022/06/20 06:54:58;;;;;;;6.40;5.23;;;24.50;71.40;;;25.33;45.84;94964.53;5067521;28;20482;-55
2022/06/20 06:57:32;;;;;;;4.60;3.57;;;24.60;71.50;;;25.50;46.18;94961.16;5086475;28;20450;-56
2022/06/20 07:00:19;;;;;;;8.00;4.20;;;24.80;71.80;;;25.73;45.31;94953.13;5084802;28;20466;-54
2022/06/20 07:02:52;;;;;;;9.33;4.50;;;25.00;70.90;;;25.98;46.07;94946.72;5073892;28;20961;-56
2022/06/20 07:05:28;;;;;;;13.27;4.70;;;25.20;70.80;;;26.21;45.37;94934.28;5085898;28;20711;-54
2022/06/20 07:07:58;;;;;;;5.00;4.60;;;25.50;70.10;;;26.43;44.55;94938.00;5085700;28;20532;-56
2022/06/20 07:10:31;;;;;;;6.00;4.20;;;25.70;68.40;;;26.54;44.17;94930.09;5084886;28;20476;-55
2022/06/20 07:13:02;;;;;;;8.03;4.43;;;25.80;67.30;;;26.64;43.94;94930.31;5074893;28;20449;-55
2022/06/20 07:15:29;;;;;;;15.47;4.50;;;25.90;65.90;;;26.80;43.83;94929.63;5085377;28;20591;-55
2022/06/20 07:17:58;;;;;;;12.17;4.30;;;26.00;66.00;;;26.96;43.95;94938.81;5078608;28;20965;-55
2022/06/20 07:20:29;;;;;;;7.70;4.07;;;26.20;65.90;;;27.10;43.64;94939.34;5080324;28;20530;-56
2022/06/20 07:22:57;;;;;;;5.37;4.30;;;26.40;65.60;;;27.17;43.06;94928.38;5085565;28;20543;-54
2022/06/20 07:25:27;;;;;;;8.13;5.27;;;26.50;63.80;;;27.27;42.89;94927.78;5071076;28;20549;-55
2022/06/20 07:27:57;;;;;;;4.13;3.73;;;26.50;63.40;;;27.42;42.83;94925.38;5072504;28;20840;-55
2022/06/20 07:30:28;;;;;;;4.13;3.80;;;26.70;63.70;;;27.60;42.90;94923.47;5079655;28;20473;-56
2022/06/20 07:32:57;;;;;;;17.53;4.23;;;26.80;62.70;;;27.72;42.35;94925.03;5078409;28;21035;-55
2022/06/20 07:35:28;;;;;;;4.90;4.40;;;27.00;61.30;;;27.77;41.88;94932.41;5076444;28;20590;-53
2022/06/20 07:37:59;;;;;;;10.33;4.43;;;27.00;61.30;;;27.92;42.26;94923.72;5082439;28;20981;-56
2022/06/20 07:40:28;;;;;;;10.67;5.77;;;27.10;61.50;;;28.11;41.84;94929.69;5081556;28;20473;-56
2022/06/20 07:42:57;;;;;;;9.30;5.30;;;27.30;61.10;;;28.33;41.40;94923.50;5078616;28;20512;-55
2022/06/20 07:45:28;;;;;;;6.80;4.40;;;27.50;60.30;;;28.52;41.03;94935.66;5076558;28;20462;-55
2022/06/20 07:47:58;;;;;;;7.93;5.67;;;27.70;59.50;;;28.72;40.96;94926.19;5084553;28;20454;-56
2022/06/20 07:50:32;;;;;;;7.50;4.50;;;27.90;59.10;;;28.94;40.67;94928.88;5085735;28;20534;-54
2022/06/20 07:53:09;;;;;;;9.17;3.83;;;28.10;59.20;;;29.11;40.88;94929.59;5074962;28;20449;-56
2022/06/20 07:55:37;;;;;;;7.47;4.47;;;28.30;58.20;;;29.23;39.84;94928.66;5083246;28;20844;-55
2022/06/20 07:58:06;;;;;;;7.03;4.57;;;28.50;56.90;;;29.31;39.93;94920.06;5086138;28;20446;-54
2022/06/20 08:00:37;;;;;;;11.67;5.00;;;28.60;57.10;;;29.41;39.55;94922.06;5084440;28;20997;-54
2022/06/20 08:03:09;;;;;;;8.17;5.13;;;28.70;57.00;;;29.53;39.55;94920.00;5078686;28;20502;-56
2022/06/20 08:05:39;;;;;;;13.07;5.67;;;28.80;56.50;;;29.69;39.88;94918.22;5084493;28;20481;-54
2022/06/20 08:08:11;;;;;;;7.37;5.43;;;28.90;56.30;;;29.84;39.21;94920.28;5085925;28;20437;-54
2022/06/20 08:10:42;;;;;;;8.10;4.63;;;29.10;55.80;;;29.86;38.22;94913.50;5078211;28;20535;-55
2022/06/20 08:13:16;;;;;;;15.90;4.00;;;29.10;54.90;;;29.90;38.64;94912.97;5082479;28;20958;-54
2022/06/20 08:15:47;;;;;;;10.87;4.00;;;29.20;54.40;;;29.96;38.85;94901.94;5087393;28;20485;-55
2022/06/20 08:18:14;;;;;;;4.73;3.30;;;29.20;54.50;;;30.12;38.23;94910.16;5074013;28;20816;-52
2022/06/20 08:20:46;;;;;;;6.20;3.23;;;29.30;54.40;;;30.19;37.50;94905.31;5084540;28;20562;-53
2022/06/20 08:23:18;;;;;;;5.43;4.20;;;29.40;53.20;;;30.18;36.13;94911.84;5085655;28;20441;-56
2022/06/20 08:25:49;;;;;;;11.33;3.70;;;29.40;52.20;;;30.28;37.34;94908.34;5083671;28;20898;-55
2022/06/20 08:28:19;;;;;;;4.33;2.60;;;29.50;51.70;;;30.37;36.54;94902.16;5077152;28;20809;-55
2022/06/20 08:30:51;;;;;;;8.10;3.17;;;29.60;52.00;;;30.45;37.15;94898.16;5085299;28;20571;-56
2022/06/20 08:33:23;;;;;;;3.93;3.63;;;29.70;52.10;;;30.64;37.36;94901.19;5084125;28;20907;-54
2022/06/20 08:35:54;;;;;;;5.57;3.10;;;29.90;52.10;;;30.89;36.14;94908.63;5082614;28;20490;-56
2022/06/20 08:38:25;;;;;;;2.97;2.73;;;30.10;51.20;;;31.04;35.84;94902.44;5085870;28;20216;-56
2022/06/20 08:41:30;;;;;;;4.43;3.10;;;30.30;51.00;;;31.22;35.41;94900.31;5084145;28;20566;-55
2022/06/20 08:44:37;;;;;;;9.03;2.80;;;30.40;50.20;;;31.51;33.36;94899.78;5074168;28;20466;-56
2022/06/20 08:48:02;;;;;;;6.90;3.27;;;30.70;49.60;;;31.80;34.11;94894.66;5080429;28;20263;-56
2022/06/20 08:51:36;;;;;;;13.90;3.20;;;31.00;48.80;;;32.14;33.50;94894.91;5082873;28;20232;-55
2022/06/20 08:54:55;;;;;;;4.60;2.57;;;31.30;47.40;;;32.47;32.93;94900.81;4999899;28;20241;-57
2022/06/20 08:57:27;;;;;;;6.50;1.97;;;31.60;46.10;;;32.65;33.18;94898.59;5070041;28;20268;-55
2022/06/20 09:00:05;;;;;;;4.83;2.53;;;31.90;46.20;;;32.83;32.76;94894.44;5082615;28;20227;-54
2022/06/20 09:02:50;;;;;;;13.70;2.03;;;32.00;46.40;;;32.99;32.27;94887.00;5076302;28;20681;-52
2022/06/20 09:05:57;;;;;;;6.33;2.83;;;32.20;45.40;;;33.18;32.16;94892.59;5084971;28;20231;-56
2022/06/20 09:08:47;;;;;;;11.82;2.83;;;32.40;45.20;;;33.16;30.25;94892.06;5079996;28;20268;-56
2022/06/20 09:11:28;;;;;;;5.25;2.55;;;32.50;42.90;;;32.91;30.65;94882.13;5077741;28;20264;-53
2022/06/20 09:14:17;;;;;;;5.33;2.00;;;32.30;43.10;;;32.74;31.13;94877.84;5082437;28;20200;-53
2022/06/20 09:16:52;;;;;;;5.50;2.45;;;32.10;43.10;;;32.70;31.17;94874.03;5077205;28;20391;-56
2022/06/20 09:19:37;;;;;;;9.40;2.30;;;32.00;43.40;;;32.63;30.24;94862.63;5084809;28;20199;-55
2022/06/20 09:22:11;;;;;;;8.07;3.43;;;32.00;42.60;;;32.62;31.38;94866.44;5082128;28;20284;-57
2022/06/20 09:24:52;;;;;;;6.88;2.38;;;31.90;43.20;;;32.76;30.38;94856.59;5078863;28;20199;-55
2022/06/20 09:27:24;;;;;;;2.80;1.80;;;32.00;42.20;;;32.78;30.59;94857.13;5076283;28;20199;-55
2022/06/20 09:30:06;;;;;;;3.10;2.33;;;32.00;42.20;;;32.69;29.70;94851.44;5085099;28;20231;-55
2022/06/20 09:33:12;;;;;;;9.05;2.47;;;32.00;41.60;;;32.62;30.11;94858.25;5076134;28;20248;-54
2022/06/20 09:36:21;;;;;;;2.30;2.20;;;32.00;40.60;;;32.41;28.14;94852.91;5077671;28;20235;-55
2022/06/20 09:38:59;;;;;;;3.20;2.00;;;31.80;39.20;;;32.20;28.95;94851.34;5077256;28;20211;-52
2022/06/20 09:41:32;;;;;;;5.77;1.33;;;31.60;39.80;;;32.16;29.06;94842.91;5084198;28;20219;-55
2022/06/20 09:44:17;;;;;;;2.43;2.00;;;31.50;40.30;;;32.31;27.38;94856.47;5076154;28;20206;-54
2022/06/20 09:46:55;;;;;;;2.78;1.60;;;31.60;37.90;;;32.38;28.77;94850.75;5081326;28;20219;-55
2022/06/20 09:49:28;;;;;;;6.80;1.80;;;31.70;40.50;;;32.28;29.09;94851.59;5078538;28;20237;-56
2022/06/20 09:52:02;;;;;;;2.03;1.83;;;31.60;39.80;;;32.14;28.94;94851.34;5083656;28;20207;-53
2022/06/20 09:54:33;;;;;;;7.22;1.55;;;31.60;39.40;;;31.98;29.00;94852.47;5079780;28;20206;-54
2022/06/20 09:57:10;;;;;;;4.82;2.00;;;31.40;39.10;;;31.95;28.69;94855.75;5083448;28;20203;-55
2022/06/20 09:59:42;;;;;;;3.97;1.80;;;31.30;39.30;;;32.05;28.62;94850.25;5082208;28;20607;-54
2022/06/20 10:02:14;;;;;;;6.30;2.40;;;31.30;39.40;;;32.16;28.68;94838.31;5076907;28;20299;-57
2022/06/20 10:04:47;;;;;;;3.00;1.83;;;31.40;38.60;;;32.09;27.91;94843.22;5083252;28;20705;-54
2022/06/20 10:07:17;;;;;;;1.93;1.67;;;31.40;38.60;;;31.91;28.75;94830.16;5081674;28;20226;-55
2022/06/20 10:09:49;;;;;;;1.87;1.67;;;31.30;39.00;;;31.71;27.67;94834.53;5076418;28;20223;-52
2022/06/20 10:12:22;;;;;;;5.83;1.60;;;31.10;38.20;;;31.45;27.50;94831.03;5082924;28;20582;-55
2022/06/20 10:15:01;;;;;;;3.10;1.57;;;30.90;38.00;;;31.26;28.01;94837.00;5084719;28;20227;-54
2022/06/20 10:17:35;;;;;;;17.87;2.00;;;30.70;38.20;;;31.20;27.93;94834.53;5075494;28;20202;-55
2022/06/20 10:20:14;;;;;;;10.27;2.37;;;30.60;38.20;;;31.30;28.40;94829.13;5083715;28;20296;-55
2022/06/20 10:22:47;;;;;;;9.73;1.97;;;30.60;38.60;;;31.39;28.93;94824.78;5079602;28;20195;-56
2022/06/20 10:26:03;;;;;;;5.10;1.77;;;30.70;39.30;;;31.58;27.87;94832.41;5073222;28;20227;-55
2022/06/20 10:28:36;;;;;;;4.13;1.97;;;30.80;39.00;;;31.75;26.29;94832.13;5079600;28;20196;-55
2022/06/20 10:31:09;;;;;;;2.20;1.90;;;31.00;36.90;;;31.86;28.25;94835.63;5084322;28;20227;-53
2022/06/20 10:33:48;;;;;;;2.50;1.98;;;31.10;38.30;;;31.94;27.44;94830.41;5076627;28;20715;-55
2022/06/20 10:36:21;;;;;;;7.47;1.88;;;31.20;37.80;;;32.06;26.65;94813.81;5083171;28;20239;-52
2022/06/20 10:39:08;;;;;;;3.65;1.42;;;31.30;36.70;;;32.18;27.50;94818.97;5076859;28;20250;-55
2022/06/20 10:41:46;;;;;;;3.10;1.60;;;31.40;37.00;;;32.27;26.93;94816.47;5080272;28;20641;-56
2022/06/20 10:44:21;;;;;;;2.47;2.00;;;31.50;37.20;;;32.15;26.59;94809.44;5083146;28;20207;-55
2022/06/20 10:46:57;;;;;;;2.90;1.40;;;31.50;37.00;;;32.05;26.60;94803.19;5084381;28;20218;-55